sensor_id;sensor_type;location;lat;lon;timestamp;pressure;altitude;pressure_sealevel;temperature;humidity
21203;BME280;10759;51.982;9.232;2023-03-19T00:00:28;100005.75;;;10.27;100.00
21203;BME280;10759;51.982;9.232;2023-03-19T00:02:56;100009.47;;;10.23;100.00
21203;BME280;10759;51.982;9.232;2023-03-19T00:05:25;100008.75;;;10.20;100.00
21203;BME280;10759;51.982;9.232;2023-03-19T00:07:54;100004.25;;;10.20;100.00
21203;BME280;10759;51.982;9.232;2023-03-19T00:10:22;99976.47;;;10.02;100.00
21203;BME280;10759;51.982;9.232;2023-03-19T00:12:50;99997.28;;;10.16;100.00
21203;BME280;10759;51.982;9.232;2023-03-19T00:15:18;99985.59;;;9.97;100.00
21203;BME280;10759;51.982;9.232;2023-03-19T00:17:45;100009.75;;;10.17;100.00
21203;BME280;10759;51.982;9.232;2023-03-19T00:20:14;99993.06;;;10.10;100.00
21203;BME280;10759;51.982;9.232;2023-03-19T00:22:43;99999.56;;;10.05;100.00
21203;BME280;10759;51.982;9.232;2023-03-19T00:25:13;99992.84;;;9.95;100.00
21203;BME280;10759;51.982;9.232;2023-03-19T00:27:40;99981.53;;;9.88;100.00
21203;BME280;10759;51.982;9.232;2023-03-19T00:30:10;99993.94;;;9.89;100.00
21203;BME280;10759;51.982;9.232;2023-03-19T00:32:39;100019.94;;;9.87;100.00
21203;BME280;10759;51.982;9.232;2023-03-19T00:35:08;100016.47;;;9.61;100.00
21203;BME280;10759;51.982;9.232;2023-03-19T00:37:38;100016.63;;;9.58;100.00
21203;BME280;10759;51.982;9.232;2023-03-19T00:40:08;99999.19;;;9.48;100.00
21203;BME280;10759;51.982;9.232;2023-03-19T00:42:37;100015.66;;;9.59;100.00
21203;BME280;10759;51.982;9.232;2023-03-19T00:45:06;100014.84;;;9.57;100.00
21203;BME280;10759;51.982;9.232;2023-03-19T00:47:34;100021.28;;;9.53;100.00
21203;BME280;10759;51.982;9.232;2023-03-19T00:50:03;100018.34;;;9.59;100.00
21203;BME280;10759;51.982;9.232;2023-03-19T00:52:32;100018.59;;;9.53;100.00
21203;BME280;10759;51.982;9.232;2023-03-19T00:55:00;100016.63;;;9.58;100.00
21203;BME280;10759;51.982;9.232;2023-03-19T00:57:28;100019.66;;;9.49;100.00
21203;BME280;10759;51.982;9.232;2023-03-19T00:59:57;99916.88;;;8.87;100.00
21203;BME280;10759;51.982;9.232;2023-03-19T01:02:25;100018.47;;;9.56;100.00
21203;BME280;10759;51.982;9.232;2023-03-19T01:04:53;100023.34;;;9.45;100.00
21203;BME280;10759;51.982;9.232;2023-03-19T01:07:21;100014.41;;;9.46;100.00
21203;BME280;10759;51.982;9.232;2023-03-19T01:09:49;99973.91;;;9.33;100.00
21203;BME280;10759;51.982;9.232;2023-03-19T01:12:17;100015.16;;;9.50;100.00
21203;BME280;10759;51.982;9.232;2023-03-19T01:14:45;100027.38;;;9.57;100.00
21203;BME280;10759;51.982;9.232;2023-03-19T01:17:15;99930.66;;;9.00;100.00
21203;BME280;10759;51.982;9.232;2023-03-19T01:19:43;100020.69;;;9.45;100.00
21203;BME280;10759;51.982;9.232;2023-03-19T01:22:11;100012.06;;;9.38;100.00
21203;BME280;10759;51.982;9.232;2023-03-19T01:24:43;100008.03;;;9.27;100.00
21203;BME280;10759;51.982;9.232;2023-03-19T01:27:13;100029.31;;;9.30;100.00
21203;BME280;10759;51.982;9.232;2023-03-19T01:29:41;100021.53;;;9.23;100.00
21203;BME280;10759;51.982;9.232;2023-03-19T01:32:33;99997.25;;;9.06;100.00
21203;BME280;10759;51.982;9.232;2023-03-19T01:35:26;99906.84;;;8.47;100.00
21203;BME280;10759;51.982;9.232;2023-03-19T01:37:54;99982.66;;;8.91;100.00
21203;BME280;10759;51.982;9.232;2023-03-19T01:40:22;99987.22;;;8.88;100.00
21203;BME280;10759;51.982;9.232;2023-03-19T01:42:52;99972.50;;;8.76;100.00
21203;BME280;10759;51.982;9.232;2023-03-19T01:45:41;99979.34;;;8.85;100.00
21203;BME280;10759;51.982;9.232;2023-03-19T01:48:37;100009.31;;;8.93;100.00
21203;BME280;10759;51.982;9.232;2023-03-19T01:51:12;100020.69;;;8.98;100.00
21203;BME280;10759;51.982;9.232;2023-03-19T01:54:04;100004.19;;;8.87;100.00
21203;BME280;10759;51.982;9.232;2023-03-19T01:56:47;100014.66;;;8.93;100.00
21203;BME280;10759;51.982;9.232;2023-03-19T01:59:27;100020.72;;;8.73;100.00
21203;BME280;10759;51.982;9.232;2023-03-19T02:02:20;100002.41;;;8.62;100.00
21203;BME280;10759;51.982;9.232;2023-03-19T02:04:56;100007.47;;;8.70;100.00
21203;BME280;10759;51.982;9.232;2023-03-19T02:07:27;100020.13;;;8.65;100.00
21203;BME280;10759;51.982;9.232;2023-03-19T02:09:56;100021.59;;;8.73;100.00
21203;BME280;10759;51.982;9.232;2023-03-19T02:12:25;100014.63;;;8.69;100.00
21203;BME280;10759;51.982;9.232;2023-03-19T02:14:53;99997.84;;;8.41;100.00
21203;BME280;10759;51.982;9.232;2023-03-19T02:17:22;100019.47;;;8.58;100.00
21203;BME280;10759;51.982;9.232;2023-03-19T02:19:56;100024.81;;;8.58;100.00
21203;BME280;10759;51.982;9.232;2023-03-19T02:22:26;100004.97;;;8.38;100.00
21203;BME280;10759;51.982;9.232;2023-03-19T02:25:00;100001.75;;;8.29;100.00
21203;BME280;10759;51.982;9.232;2023-03-19T02:27:31;100003.03;;;8.17;100.00
21203;BME280;10759;51.982;9.232;2023-03-19T02:29:59;100009.03;;;8.25;100.00
21203;BME280;10759;51.982;9.232;2023-03-19T02:32:29;99988.78;;;8.18;100.00
21203;BME280;10759;51.982;9.232;2023-03-19T02:34:56;100028.91;;;8.43;100.00
21203;BME280;10759;51.982;9.232;2023-03-19T02:37:26;100023.06;;;8.30;100.00
21203;BME280;10759;51.982;9.232;2023-03-19T02:40:01;100024.72;;;8.34;100.00
21203;BME280;10759;51.982;9.232;2023-03-19T02:42:34;100019.63;;;8.27;100.00
21203;BME280;10759;51.982;9.232;2023-03-19T02:45:03;100024.63;;;8.37;100.00
21203;BME280;10759;51.982;9.232;2023-03-19T02:47:31;100026.25;;;8.42;100.00
21203;BME280;10759;51.982;9.232;2023-03-19T02:49:59;100027.22;;;8.41;100.00
21203;BME280;10759;51.982;9.232;2023-03-19T02:52:27;100028.84;;;8.45;100.00
21203;BME280;10759;51.982;9.232;2023-03-19T02:54:55;100027.09;;;8.44;100.00
21203;BME280;10759;51.982;9.232;2023-03-19T02:57:23;100010.59;;;8.31;100.00
21203;BME280;10759;51.982;9.232;2023-03-19T02:59:52;100009.47;;;8.38;100.00
21203;BME280;10759;51.982;9.232;2023-03-19T03:02:20;100010.31;;;8.38;100.00
21203;BME280;10759;51.982;9.232;2023-03-19T03:04:49;99997.66;;;8.18;100.00
21203;BME280;10759;51.982;9.232;2023-03-19T03:07:17;100027.31;;;8.36;100.00
21203;BME280;10759;51.982;9.232;2023-03-19T03:09:45;100034.34;;;8.38;100.00
21203;BME280;10759;51.982;9.232;2023-03-19T03:12:13;100006.66;;;8.43;100.00
21203;BME280;10759;51.982;9.232;2023-03-19T03:14:42;100025.75;;;8.57;100.00
21203;BME280;10759;51.982;9.232;2023-03-19T03:17:11;100023.91;;;8.59;100.00
21203;BME280;10759;51.982;9.232;2023-03-19T03:19:39;100011.34;;;8.61;100.00
21203;BME280;10759;51.982;9.232;2023-03-19T03:22:08;99845.44;;;7.45;100.00
21203;BME280;10759;51.982;9.232;2023-03-19T03:24:36;100030.28;;;8.55;100.00
21203;BME280;10759;51.982;9.232;2023-03-19T03:27:04;100015.28;;;8.51;100.00
21203;BME280;10759;51.982;9.232;2023-03-19T03:29:33;100027.47;;;8.58;100.00
21203;BME280;10759;51.982;9.232;2023-03-19T03:32:02;100011.84;;;8.47;100.00
21203;BME280;10759;51.982;9.232;2023-03-19T03:34:31;100028.00;;;8.44;100.00
21203;BME280;10759;51.982;9.232;2023-03-19T03:37:00;100034.88;;;8.23;100.00
21203;BME280;10759;51.982;9.232;2023-03-19T03:39:28;100035.28;;;8.11;100.00
21203;BME280;10759;51.982;9.232;2023-03-19T03:41:56;100037.81;;;8.15;100.00
21203;BME280;10759;51.982;9.232;2023-03-19T03:44:25;100034.06;;;8.21;100.00
21203;BME280;10759;51.982;9.232;2023-03-19T03:46:53;100026.88;;;8.23;100.00
21203;BME280;10759;51.982;9.232;2023-03-19T03:49:21;100018.72;;;8.28;100.00
21203;BME280;10759;51.982;9.232;2023-03-19T03:51:51;100031.63;;;8.15;100.00
21203;BME280;10759;51.982;9.232;2023-03-19T03:54:19;100037.97;;;8.11;100.00
21203;BME280;10759;51.982;9.232;2023-03-19T03:56:47;100026.00;;;8.23;100.00
21203;BME280;10759;51.982;9.232;2023-03-19T03:59:15;100031.69;;;8.40;100.00
21203;BME280;10759;51.982;9.232;2023-03-19T04:01:43;100020.94;;;8.42;100.00
21203;BME280;10759;51.982;9.232;2023-03-19T04:04:11;100038.59;;;8.46;100.00
21203;BME280;10759;51.982;9.232;2023-03-19T04:06:39;100022.66;;;8.44;100.00
21203;BME280;10759;51.982;9.232;2023-03-19T04:09:32;100013.66;;;8.47;100.00
21203;BME280;10759;51.982;9.232;2023-03-19T04:11:59;100045.72;;;8.72;100.00
21203;BME280;10759;51.982;9.232;2023-03-19T04:14:28;100040.56;;;8.66;100.00
21203;BME280;10759;51.982;9.232;2023-03-19T04:16:56;100009.28;;;8.44;100.00
21203;BME280;10759;51.982;9.232;2023-03-19T04:19:24;100035.44;;;8.59;100.00
21203;BME280;10759;51.982;9.232;2023-03-19T04:21:52;100029.84;;;8.67;100.00
21203;BME280;10759;51.982;9.232;2023-03-19T04:24:20;100032.19;;;8.76;100.00
21203;BME280;10759;51.982;9.232;2023-03-19T04:26:50;99974.63;;;8.43;100.00
21203;BME280;10759;51.982;9.232;2023-03-19T04:29:19;100027.63;;;8.78;100.00
21203;BME280;10759;51.982;9.232;2023-03-19T04:31:49;100025.03;;;8.77;100.00
21203;BME280;10759;51.982;9.232;2023-03-19T04:34:17;100033.06;;;8.77;100.00
21203;BME280;10759;51.982;9.232;2023-03-19T04:36:45;100031.84;;;8.86;100.00
21203;BME280;10759;51.982;9.232;2023-03-19T04:39:14;100027.38;;;8.86;100.00
21203;BME280;10759;51.982;9.232;2023-03-19T04:41:41;100027.84;;;8.74;100.00
21203;BME280;10759;51.982;9.232;2023-03-19T04:44:33;100033.38;;;8.68;100.00
21203;BME280;10759;51.982;9.232;2023-03-19T04:47:01;100009.72;;;8.57;100.00
21203;BME280;10759;51.982;9.232;2023-03-19T04:49:37;100007.41;;;8.46;100.00
21203;BME280;10759;51.982;9.232;2023-03-19T04:52:05;100031.53;;;8.70;100.00
21203;BME280;10759;51.982;9.232;2023-03-19T04:54:32;100035.09;;;8.69;100.00
21203;BME280;10759;51.982;9.232;2023-03-19T04:57:00;100039.28;;;8.24;100.00
21203;BME280;10759;51.982;9.232;2023-03-19T04:59:35;100039.13;;;8.29;100.00
21203;BME280;10759;51.982;9.232;2023-03-19T05:02:04;100023.56;;;8.43;100.00
21203;BME280;10759;51.982;9.232;2023-03-19T05:04:34;100043.06;;;8.70;100.00
21203;BME280;10759;51.982;9.232;2023-03-19T05:07:06;100041.72;;;8.84;100.00
21203;BME280;10759;51.982;9.232;2023-03-19T05:09:36;100037.00;;;8.90;100.00
21203;BME280;10759;51.982;9.232;2023-03-19T05:12:04;100046.56;;;8.72;100.00
21203;BME280;10759;51.982;9.232;2023-03-19T05:14:40;100047.59;;;8.68;100.00
21203;BME280;10759;51.982;9.232;2023-03-19T05:17:33;99939.41;;;8.05;100.00
21203;BME280;10759;51.982;9.232;2023-03-19T05:20:13;100047.16;;;8.80;100.00
21203;BME280;10759;51.982;9.232;2023-03-19T05:22:54;100048.84;;;8.83;100.00
21203;BME280;10759;51.982;9.232;2023-03-19T05:25:32;100043.75;;;8.77;100.00
21203;BME280;10759;51.982;9.232;2023-03-19T05:28:03;100043.50;;;8.83;100.00
21203;BME280;10759;51.982;9.232;2023-03-19T05:30:35;100039.84;;;8.86;100.00
21203;BME280;10759;51.982;9.232;2023-03-19T05:33:17;100046.66;;;8.94;100.00
21203;BME280;10759;51.982;9.232;2023-03-19T05:35:45;100054.91;;;8.88;100.00
21203;BME280;10759;51.982;9.232;2023-03-19T05:38:20;100008.19;;;8.75;100.00
21203;BME280;10759;51.982;9.232;2023-03-19T05:40:54;100058.56;;;8.86;100.00
21203;BME280;10759;51.982;9.232;2023-03-19T05:43:29;100060.75;;;8.99;100.00
21203;BME280;10759;51.982;9.232;2023-03-19T05:46:02;100056.91;;;9.07;100.00
21203;BME280;10759;51.982;9.232;2023-03-19T05:48:32;100039.81;;;8.87;100.00
21203;BME280;10759;51.982;9.232;2023-03-19T05:51:02;100061.59;;;9.00;100.00
21203;BME280;10759;51.982;9.232;2023-03-19T05:53:34;100043.81;;;8.49;100.00
21203;BME280;10759;51.982;9.232;2023-03-19T05:56:23;100074.50;;;8.89;100.00
21203;BME280;10759;51.982;9.232;2023-03-19T05:59:02;100064.88;;;9.08;100.00
21203;BME280;10759;51.982;9.232;2023-03-19T06:01:36;100062.91;;;9.13;100.00
21203;BME280;10759;51.982;9.232;2023-03-19T06:04:04;100044.47;;;9.06;100.00
21203;BME280;10759;51.982;9.232;2023-03-19T06:06:33;100066.38;;;9.15;100.00
21203;BME280;10759;51.982;9.232;2023-03-19T06:09:02;100072.22;;;9.27;100.00
21203;BME280;10759;51.982;9.232;2023-03-19T06:11:39;100076.63;;;9.28;100.00
21203;BME280;10759;51.982;9.232;2023-03-19T06:14:27;100080.22;;;9.27;100.00
21203;BME280;10759;51.982;9.232;2023-03-19T06:17:22;100068.13;;;9.16;100.00
21203;BME280;10759;51.982;9.232;2023-03-19T06:19:51;100037.84;;;8.92;100.00
21203;BME280;10759;51.982;9.232;2023-03-19T06:22:19;100069.75;;;9.20;100.00
21203;BME280;10759;51.982;9.232;2023-03-19T06:24:47;100071.22;;;8.80;100.00
21203;BME280;10759;51.982;9.232;2023-03-19T06:27:15;100079.28;;;9.04;100.00
21203;BME280;10759;51.982;9.232;2023-03-19T06:29:44;100071.97;;;9.33;100.00
21203;BME280;10759;51.982;9.232;2023-03-19T06:32:19;100039.78;;;9.12;100.00
21203;BME280;10759;51.982;9.232;2023-03-19T06:34:52;100087.22;;;9.31;100.00
21203;BME280;10759;51.982;9.232;2023-03-19T06:37:21;100079.78;;;9.39;100.00
21203;BME280;10759;51.982;9.232;2023-03-19T06:39:49;100067.50;;;9.33;100.00
21203;BME280;10759;51.982;9.232;2023-03-19T06:42:20;100093.72;;;9.47;100.00
21203;BME280;10759;51.982;9.232;2023-03-19T06:44:48;100084.59;;;9.53;100.00
21203;BME280;10759;51.982;9.232;2023-03-19T06:47:19;100066.16;;;9.45;100.00
21203;BME280;10759;51.982;9.232;2023-03-19T06:49:47;100102.25;;;9.57;100.00
21203;BME280;10759;51.982;9.232;2023-03-19T06:52:16;100098.50;;;9.62;100.00
21203;BME280;10759;51.982;9.232;2023-03-19T06:54:44;100105.47;;;9.66;100.00
21203;BME280;10759;51.982;9.232;2023-03-19T06:57:12;100104.59;;;9.66;100.00
21203;BME280;10759;51.982;9.232;2023-03-19T06:59:39;100090.22;;;9.68;100.00
21203;BME280;10759;51.982;9.232;2023-03-19T07:02:08;100099.31;;;9.86;100.00
21203;BME280;10759;51.982;9.232;2023-03-19T07:04:37;100106.38;;;9.89;100.00
21203;BME280;10759;51.982;9.232;2023-03-19T07:07:05;100110.03;;;9.86;100.00
21203;BME280;10759;51.982;9.232;2023-03-19T07:09:35;100074.31;;;9.65;100.00
21203;BME280;10759;51.982;9.232;2023-03-19T07:12:03;100116.22;;;10.10;100.00
21203;BME280;10759;51.982;9.232;2023-03-19T07:14:31;100112.69;;;10.10;100.00
21203;BME280;10759;51.982;9.232;2023-03-19T07:16:59;100101.03;;;10.11;100.00
21203;BME280;10759;51.982;9.232;2023-03-19T07:19:27;100117.88;;;10.37;100.00
21203;BME280;10759;51.982;9.232;2023-03-19T07:21:55;100123.84;;;10.43;100.00
21203;BME280;10759;51.982;9.232;2023-03-19T07:24:23;100125.47;;;10.47;100.00
21203;BME280;10759;51.982;9.232;2023-03-19T07:26:52;100128.69;;;10.56;100.00
21203;BME280;10759;51.982;9.232;2023-03-19T07:29:20;100128.78;;;10.74;100.00
21203;BME280;10759;51.982;9.232;2023-03-19T07:31:48;100109.44;;;10.88;100.00
21203;BME280;10759;51.982;9.232;2023-03-19T07:34:16;100126.34;;;11.11;100.00
21203;BME280;10759;51.982;9.232;2023-03-19T07:36:44;100112.78;;;11.14;100.00
21203;BME280;10759;51.982;9.232;2023-03-19T07:39:12;100133.81;;;11.44;100.00
21203;BME280;10759;51.982;9.232;2023-03-19T07:41:40;100122.16;;;11.45;100.00
21203;BME280;10759;51.982;9.232;2023-03-19T07:44:15;100126.66;;;11.63;100.00
21203;BME280;10759;51.982;9.232;2023-03-19T07:46:43;100132.31;;;11.76;100.00
21203;BME280;10759;51.982;9.232;2023-03-19T07:49:11;100137.25;;;11.87;100.00
21203;BME280;10759;51.982;9.232;2023-03-19T07:51:38;100131.56;;;11.93;100.00
21203;BME280;10759;51.982;9.232;2023-03-19T07:54:06;100137.72;;;11.95;100.00
21203;BME280;10759;51.982;9.232;2023-03-19T07:56:34;100132.22;;;11.98;100.00
21203;BME280;10759;51.982;9.232;2023-03-19T07:59:02;100093.59;;;11.81;100.00
21203;BME280;10759;51.982;9.232;2023-03-19T08:01:32;100128.78;;;12.13;100.00
21203;BME280;10759;51.982;9.232;2023-03-19T08:04:00;100117.06;;;12.16;100.00
21203;BME280;10759;51.982;9.232;2023-03-19T08:06:28;100130.28;;;12.38;100.00
21203;BME280;10759;51.982;9.232;2023-03-19T08:08:56;100121.94;;;12.44;100.00
21203;BME280;10759;51.982;9.232;2023-03-19T08:11:24;100130.16;;;12.58;100.00
21203;BME280;10759;51.982;9.232;2023-03-19T08:13:52;100111.88;;;12.48;100.00
21203;BME280;10759;51.982;9.232;2023-03-19T08:16:20;100142.19;;;12.68;100.00
21203;BME280;10759;51.982;9.232;2023-03-19T08:18:49;100023.16;;;12.13;100.00
21203;BME280;10759;51.982;9.232;2023-03-19T08:21:18;100134.84;;;12.89;100.00
21203;BME280;10759;51.982;9.232;2023-03-19T08:23:45;100136.59;;;12.91;100.00
21203;BME280;10759;51.982;9.232;2023-03-19T08:26:13;100137.28;;;12.94;100.00
21203;BME280;10759;51.982;9.232;2023-03-19T08:28:41;100137.94;;;12.99;100.00
21203;BME280;10759;51.982;9.232;2023-03-19T08:31:11;100100.91;;;12.87;100.00
21203;BME280;10759;51.982;9.232;2023-03-19T08:33:39;100138.41;;;13.07;100.00
21203;BME280;10759;51.982;9.232;2023-03-19T08:36:10;100140.31;;;13.40;100.00
21203;BME280;10759;51.982;9.232;2023-03-19T08:38:39;100143.69;;;13.61;100.00
21203;BME280;10759;51.982;9.232;2023-03-19T08:41:08;100136.91;;;13.70;99.07
21203;BME280;10759;51.982;9.232;2023-03-19T08:43:36;100113.34;;;13.58;99.36
21203;BME280;10759;51.982;9.232;2023-03-19T08:46:04;100144.94;;;13.87;99.10
21203;BME280;10759;51.982;9.232;2023-03-19T08:48:33;100147.53;;;13.89;98.29
21203;BME280;10759;51.982;9.232;2023-03-19T08:51:01;100122.34;;;13.74;96.38
21203;BME280;10759;51.982;9.232;2023-03-19T08:53:31;100145.78;;;13.88;96.39
21203;BME280;10759;51.982;9.232;2023-03-19T08:56:00;100151.72;;;13.94;96.58
21203;BME280;10759;51.982;9.232;2023-03-19T08:58:29;100132.97;;;14.09;97.05
21203;BME280;10759;51.982;9.232;2023-03-19T09:01:00;100162.50;;;14.26;96.52
21203;BME280;10759;51.982;9.232;2023-03-19T09:03:29;100155.81;;;14.17;97.63
21203;BME280;10759;51.982;9.232;2023-03-19T09:05:58;100150.00;;;14.09;96.62
21203;BME280;10759;51.982;9.232;2023-03-19T09:08:27;100158.44;;;14.19;97.75
21203;BME280;10759;51.982;9.232;2023-03-19T09:10:56;100151.56;;;14.29;97.51
21203;BME280;10759;51.982;9.232;2023-03-19T09:13:25;100137.41;;;14.26;97.66
21203;BME280;10759;51.982;9.232;2023-03-19T09:15:52;100150.78;;;14.43;95.64
21203;BME280;10759;51.982;9.232;2023-03-19T09:18:21;100151.19;;;14.51;94.61
21203;BME280;10759;51.982;9.232;2023-03-19T09:20:50;100146.16;;;14.29;95.54
21203;BME280;10759;51.982;9.232;2023-03-19T09:23:18;100138.06;;;13.98;96.25
21203;BME280;10759;51.982;9.232;2023-03-19T09:25:47;100106.88;;;13.93;96.15
21203;BME280;10759;51.982;9.232;2023-03-19T09:28:17;100157.81;;;14.14;94.76
21203;BME280;10759;51.982;9.232;2023-03-19T09:30:45;100155.22;;;14.60;95.75
21203;BME280;10759;51.982;9.232;2023-03-19T09:33:15;100160.38;;;14.95;95.29
21203;BME280;10759;51.982;9.232;2023-03-19T09:35:47;100163.19;;;15.08;93.28
21203;BME280;10759;51.982;9.232;2023-03-19T09:38:16;100157.06;;;15.20;91.27
21203;BME280;10759;51.982;9.232;2023-03-19T09:40:46;100153.69;;;15.16;90.63
21203;BME280;10759;51.982;9.232;2023-03-19T09:43:36;100173.53;;;15.15;87.73
21203;BME280;10759;51.982;9.232;2023-03-19T09:46:11;100164.66;;;15.13;85.17
21203;BME280;10759;51.982;9.232;2023-03-19T09:48:45;100161.41;;;15.22;86.38
21203;BME280;10759;51.982;9.232;2023-03-19T09:51:18;100160.28;;;15.27;86.44
21203;BME280;10759;51.982;9.232;2023-03-19T09:53:53;100168.41;;;15.41;88.35
21203;BME280;10759;51.982;9.232;2023-03-19T09:56:23;100166.94;;;15.50;87.42
21203;BME280;10759;51.982;9.232;2023-03-19T09:58:55;100031.97;;;14.76;88.66
21203;BME280;10759;51.982;9.232;2023-03-19T10:01:28;100175.25;;;15.61;85.74
21203;BME280;10759;51.982;9.232;2023-03-19T10:04:06;100175.06;;;15.64;83.39
21203;BME280;10759;51.982;9.232;2023-03-19T10:06:39;100169.13;;;15.73;80.21
21203;BME280;10759;51.982;9.232;2023-03-19T10:09:37;100162.13;;;15.69;80.08
21203;BME280;10759;51.982;9.232;2023-03-19T10:12:18;100179.72;;;15.76;81.67
21203;BME280;10759;51.982;9.232;2023-03-19T10:15:02;100176.06;;;15.77;77.89
21203;BME280;10759;51.982;9.232;2023-03-19T10:17:33;100171.34;;;15.81;82.06
21203;BME280;10759;51.982;9.232;2023-03-19T10:20:06;100181.59;;;15.90;79.77
21203;BME280;10759;51.982;9.232;2023-03-19T10:22:38;100184.00;;;15.80;78.02
21203;BME280;10759;51.982;9.232;2023-03-19T10:25:10;100184.47;;;15.73;76.18
21203;BME280;10759;51.982;9.232;2023-03-19T10:27:44;100172.66;;;15.59;77.35
21203;BME280;10759;51.982;9.232;2023-03-19T10:30:15;100181.03;;;15.69;77.56
21203;BME280;10759;51.982;9.232;2023-03-19T10:32:45;100153.75;;;15.59;78.20
21203;BME280;10759;51.982;9.232;2023-03-19T10:35:18;100183.88;;;15.82;77.38
21203;BME280;10759;51.982;9.232;2023-03-19T10:37:48;100178.19;;;15.86;80.53
21203;BME280;10759;51.982;9.232;2023-03-19T10:40:20;100173.28;;;15.93;80.57
21203;BME280;10759;51.982;9.232;2023-03-19T10:43:00;100172.69;;;15.88;77.72
21203;BME280;10759;51.982;9.232;2023-03-19T10:45:33;100179.63;;;15.92;80.98
21203;BME280;10759;51.982;9.232;2023-03-19T10:48:05;100165.09;;;15.80;79.57
21203;BME280;10759;51.982;9.232;2023-03-19T10:50:46;100172.97;;;15.98;80.64
21203;BME280;10759;51.982;9.232;2023-03-19T10:53:28;100181.66;;;15.88;80.56
21203;BME280;10759;51.982;9.232;2023-03-19T10:56:00;100186.19;;;15.74;81.44
21203;BME280;10759;51.982;9.232;2023-03-19T10:58:30;100183.50;;;15.88;79.65
21203;BME280;10759;51.982;9.232;2023-03-19T11:01:05;100183.97;;;15.95;78.17
21203;BME280;10759;51.982;9.232;2023-03-19T11:03:35;100186.38;;;15.99;78.49
21203;BME280;10759;51.982;9.232;2023-03-19T11:06:08;100186.22;;;16.02;80.63
21203;BME280;10759;51.982;9.232;2023-03-19T11:08:40;100154.25;;;15.95;80.68
21203;BME280;10759;51.982;9.232;2023-03-19T11:11:22;100194.25;;;16.31;80.55
21203;BME280;10759;51.982;9.232;2023-03-19T11:13:51;100192.91;;;16.38;74.52
21203;BME280;10759;51.982;9.232;2023-03-19T11:16:20;100195.66;;;16.51;76.00
21203;BME280;10759;51.982;9.232;2023-03-19T11:18:48;100195.28;;;16.57;75.06
21203;BME280;10759;51.982;9.232;2023-03-19T11:21:21;100184.75;;;16.52;79.91
21203;BME280;10759;51.982;9.232;2023-03-19T11:23:59;100193.38;;;16.86;77.91
21203;BME280;10759;51.982;9.232;2023-03-19T11:26:27;100197.19;;;16.97;76.52
21203;BME280;10759;51.982;9.232;2023-03-19T11:29:01;100172.81;;;16.84;76.97
21203;BME280;10759;51.982;9.232;2023-03-19T11:31:33;100190.72;;;16.99;77.14
21203;BME280;10759;51.982;9.232;2023-03-19T11:34:21;100188.03;;;17.12;75.29
21203;BME280;10759;51.982;9.232;2023-03-19T11:36:57;100173.31;;;17.03;74.58
21203;BME280;10759;51.982;9.232;2023-03-19T11:39:36;100189.34;;;17.19;69.05
21203;BME280;10759;51.982;9.232;2023-03-19T11:42:37;100190.22;;;17.20;73.75
21203;BME280;10759;51.982;9.232;2023-03-19T11:45:12;100175.28;;;17.27;71.03
21203;BME280;10759;51.982;9.232;2023-03-19T11:47:50;100189.44;;;17.17;75.05
21203;BME280;10759;51.982;9.232;2023-03-19T11:50:25;100186.78;;;17.30;69.64
21203;BME280;10759;51.982;9.232;2023-03-19T11:53:02;100185.69;;;17.33;71.78
21203;BME280;10759;51.982;9.232;2023-03-19T11:55:39;100184.84;;;17.45;67.83
21203;BME280;10759;51.982;9.232;2023-03-19T11:58:30;100180.53;;;17.55;72.33
21203;BME280;10759;51.982;9.232;2023-03-19T12:01:09;100180.75;;;17.52;70.93
21203;BME280;10759;51.982;9.232;2023-03-19T12:04:05;100159.47;;;17.33;69.16
21203;BME280;10759;51.982;9.232;2023-03-19T12:06:50;100173.47;;;17.53;67.92
21203;BME280;10759;51.982;9.232;2023-03-19T12:09:26;100175.19;;;17.67;65.71
21203;BME280;10759;51.982;9.232;2023-03-19T12:11:59;100169.91;;;17.65;61.50
21203;BME280;10759;51.982;9.232;2023-03-19T12:14:40;100149.19;;;17.51;66.90
21203;BME280;10759;51.982;9.232;2023-03-19T12:17:28;100180.06;;;17.49;66.22
21203;BME280;10759;51.982;9.232;2023-03-19T12:20:18;100180.19;;;17.60;66.46
21203;BME280;10759;51.982;9.232;2023-03-19T12:22:58;100160.34;;;17.47;69.44
21203;BME280;10759;51.982;9.232;2023-03-19T12:25:41;100173.03;;;17.59;69.30
21203;BME280;10759;51.982;9.232;2023-03-19T12:28:16;100173.78;;;17.61;62.40
21203;BME280;10759;51.982;9.232;2023-03-19T12:30:48;100171.09;;;17.61;64.85
21203;BME280;10759;51.982;9.232;2023-03-19T12:33:36;100166.75;;;17.84;62.89
21203;BME280;10759;51.982;9.232;2023-03-19T12:36:12;100165.34;;;17.78;63.69
21203;BME280;10759;51.982;9.232;2023-03-19T12:38:45;100166.63;;;17.98;68.76
21203;BME280;10759;51.982;9.232;2023-03-19T12:41:18;100167.28;;;18.15;65.11
21203;BME280;10759;51.982;9.232;2023-03-19T12:43:53;100163.16;;;17.96;61.57
21203;BME280;10759;51.982;9.232;2023-03-19T12:46:25;100167.06;;;18.05;60.97
21203;BME280;10759;51.982;9.232;2023-03-19T12:48:57;100163.41;;;17.80;62.33
21203;BME280;10759;51.982;9.232;2023-03-19T12:51:31;100172.94;;;17.86;62.02
21203;BME280;10759;51.982;9.232;2023-03-19T12:54:04;100162.63;;;17.66;57.81
21203;BME280;10759;51.982;9.232;2023-03-19T12:56:38;100149.53;;;17.72;59.26
21203;BME280;10759;51.982;9.232;2023-03-19T12:59:12;100157.00;;;17.81;58.42
21203;BME280;10759;51.982;9.232;2023-03-19T13:01:46;100153.09;;;17.98;57.93
21203;BME280;10759;51.982;9.232;2023-03-19T13:04:19;100158.44;;;17.87;58.08
21203;BME280;10759;51.982;9.232;2023-03-19T13:06:52;100140.41;;;17.99;56.13
21203;BME280;10759;51.982;9.232;2023-03-19T13:09:28;100157.06;;;18.18;57.97
21203;BME280;10759;51.982;9.232;2023-03-19T13:12:00;100143.09;;;18.12;59.62
21203;BME280;10759;51.982;9.232;2023-03-19T13:14:37;100161.59;;;18.31;57.66